createdAt,value
2023-03-04T00:00:58.530Z,48.00
2023-03-04T00:03:26.858Z,46.83
2023-03-04T00:05:55.174Z,47.27
2023-03-04T00:08:23.596Z,46.17
2023-03-04T00:10:51.761Z,45.63
2023-03-04T00:13:22.275Z,46.40
2023-03-04T00:15:50.785Z,46.70
2023-03-04T00:18:21.060Z,46.57
2023-03-04T00:20:49.734Z,47.53
2023-03-04T00:23:18.296Z,49.37
2023-03-04T00:25:46.856Z,47.40
2023-03-04T00:28:15.179Z,49.23
2023-03-04T00:30:44.969Z,46.33
2023-03-04T00:33:13.271Z,46.77
2023-03-04T00:35:41.982Z,46.07
2023-03-04T00:38:10.717Z,45.73
2023-03-04T00:40:38.962Z,47.87
2023-03-04T00:43:07.202Z,47.20
2023-03-04T00:45:35.581Z,46.37
2023-03-04T00:48:05.540Z,44.57
2023-03-04T00:50:33.864Z,44.97
2023-03-04T00:53:02.810Z,42.80
2023-03-04T00:55:31.292Z,41.93
2023-03-04T00:57:59.564Z,41.63
2023-03-04T01:00:27.879Z,42.20
2023-03-04T01:02:56.141Z,44.87
2023-03-04T01:05:25.889Z,43.00
2023-03-04T01:07:55.046Z,40.07
2023-03-04T01:10:23.375Z,42.17
2023-03-04T01:12:51.715Z,38.07
2023-03-04T01:15:20.066Z,36.27
2023-03-04T01:17:48.572Z,33.93
2023-03-04T01:20:16.925Z,31.93
2023-03-04T01:22:46.475Z,31.50
2023-03-04T01:25:16.168Z,29.83
2023-03-04T01:27:44.459Z,28.77
2023-03-04T01:30:13.946Z,27.90
2023-03-04T01:32:42.237Z,26.27
2023-03-04T01:35:11.313Z,25.30
2023-03-04T01:37:39.654Z,25.90
2023-03-04T01:40:11.350Z,25.37
2023-03-04T01:42:39.863Z,22.70
2023-03-04T01:45:12.223Z,24.10
2023-03-04T01:47:40.750Z,23.10
2023-03-04T01:50:18.097Z,22.27
2023-03-04T01:52:46.495Z,21.77
2023-03-04T01:55:22.524Z,22.33
2023-03-04T01:57:52.421Z,23.47
2023-03-04T02:00:30.831Z,22.43
2023-03-04T02:03:01.409Z,23.20
2023-03-04T02:05:30.862Z,22.23
2023-03-04T02:08:01.520Z,22.77
2023-03-04T02:10:31.269Z,23.43
2023-03-04T02:13:00.744Z,23.43
2023-03-04T02:15:29.372Z,23.30
2023-03-04T02:17:57.703Z,24.63
2023-03-04T02:20:41.573Z,23.60
2023-03-04T02:23:16.110Z,24.10
2023-03-04T02:25:50.327Z,23.57
2023-03-04T02:28:20.531Z,24.33
2023-03-04T02:30:49.455Z,24.13
2023-03-04T02:33:19.763Z,25.83
2023-03-04T02:35:48.630Z,25.20
2023-03-04T02:38:16.931Z,25.77
2023-03-04T02:40:49.437Z,25.07
2023-03-04T02:43:19.326Z,26.30
2023-03-04T02:45:50.205Z,26.53
2023-03-04T02:48:21.353Z,26.63
2023-03-04T02:50:52.689Z,27.33
2023-03-04T02:53:22.052Z,27.33
2023-03-04T02:55:50.976Z,26.73
2023-03-04T02:58:22.643Z,26.63
2023-03-04T03:00:50.873Z,27.23
2023-03-04T03:03:19.181Z,27.23
2023-03-04T03:05:47.704Z,29.53
2023-03-04T03:08:16.211Z,27.77
2023-03-04T03:10:44.729Z,27.87
2023-03-04T03:13:13.376Z,28.87
2023-03-04T03:15:43.186Z,28.97
2023-03-04T03:18:12.222Z,28.37
2023-03-04T03:20:40.552Z,28.40
2023-03-04T03:23:10.151Z,29.57
2023-03-04T03:25:38.346Z,28.10
2023-03-04T03:28:07.749Z,28.53
2023-03-04T03:30:36.373Z,27.80
2023-03-04T03:33:09.138Z,29.03
2023-03-04T03:35:38.258Z,29.57
2023-03-04T03:38:06.782Z,29.30
2023-03-04T03:40:35.375Z,29.27
2023-03-04T03:43:03.717Z,30.67
2023-03-04T03:45:31.966Z,30.30
2023-03-04T03:48:00.361Z,29.60
2023-03-04T03:50:30.015Z,30.13
2023-03-04T03:52:58.502Z,29.30
2023-03-04T03:55:26.861Z,30.63
2023-03-04T03:57:55.069Z,29.70
2023-03-04T04:00:23.546Z,31.80
2023-03-04T04:02:51.832Z,31.00
2023-03-04T04:05:20.364Z,31.43
2023-03-04T04:07:50.621Z,31.60
2023-03-04T04:10:19.279Z,32.57
2023-03-04T04:12:47.522Z,31.33
2023-03-04T04:15:15.822Z,32.83
2023-03-04T04:17:44.080Z,33.60
2023-03-04T04:20:13.058Z,32.27
2023-03-04T04:22:41.267Z,33.43
2023-03-04T04:25:11.789Z,34.03
2023-03-04T04:27:40.109Z,32.33
2023-03-04T04:30:09.441Z,33.67
2023-03-04T04:32:37.673Z,34.00
2023-03-04T04:35:06.660Z,32.73
2023-03-04T04:37:34.985Z,33.10
2023-03-04T04:40:03.739Z,34.23
2023-03-04T04:42:33.418Z,34.67
2023-03-04T04:45:01.724Z,34.63
2023-03-04T04:47:30.019Z,33.87
2023-03-04T04:49:58.240Z,35.70
2023-03-04T04:52:26.793Z,36.00
2023-03-04T04:54:55.052Z,35.77
2023-03-04T04:57:23.504Z,35.90
2023-03-04T04:59:53.236Z,36.80
2023-03-04T05:02:21.690Z,35.70
2023-03-04T05:04:49.893Z,36.67
2023-03-04T05:07:18.414Z,35.53
2023-03-04T05:09:46.913Z,38.83
2023-03-04T05:12:15.216Z,37.73
2023-03-04T05:14:43.546Z,39.20
2023-03-04T05:17:13.220Z,36.57
2023-03-04T05:19:41.498Z,38.07
2023-03-04T05:22:10.063Z,38.83
2023-03-04T05:24:38.341Z,36.83
2023-03-04T05:27:06.863Z,38.43
2023-03-04T05:29:35.180Z,38.07
2023-03-04T05:32:03.538Z,39.50
2023-03-04T05:34:33.257Z,38.50
2023-03-04T05:37:01.535Z,39.70
2023-03-04T05:39:29.799Z,39.10
2023-03-04T05:41:58.134Z,38.77
2023-03-04T05:44:26.377Z,39.33
2023-03-04T05:46:54.785Z,40.13
2023-03-04T05:49:23.308Z,39.37
2023-03-04T05:51:52.934Z,38.30
2023-03-04T05:54:21.656Z,39.33
2023-03-04T05:56:50.053Z,39.73
2023-03-04T05:59:20.715Z,38.53
2023-03-04T06:01:49.291Z,41.90
2023-03-04T06:04:18.592Z,43.53
2023-03-04T06:06:47.373Z,42.70
2023-03-04T06:09:17.192Z,41.63
2023-03-04T06:11:45.516Z,41.20
2023-03-04T06:14:13.767Z,40.37
2023-03-04T06:16:42.255Z,39.97
2023-03-04T06:19:10.795Z,39.53
2023-03-04T06:21:39.796Z,40.77
2023-03-04T06:24:08.199Z,40.20
2023-03-04T06:26:37.829Z,43.30
2023-03-04T06:29:08.483Z,37.27
2023-03-04T06:31:36.776Z,41.73
2023-03-04T06:34:05.262Z,41.07
2023-03-04T06:36:33.565Z,43.00
2023-03-04T06:39:03.626Z,42.60
2023-03-04T06:41:31.916Z,43.03
2023-03-04T06:44:01.727Z,42.93
2023-03-04T06:46:30.637Z,44.00
2023-03-04T06:48:58.975Z,42.63
2023-03-04T06:51:27.419Z,42.77
2023-03-04T06:53:56.044Z,41.80
2023-03-04T06:56:24.534Z,41.33
2023-03-04T06:58:53.012Z,42.93
2023-03-04T07:01:24.387Z,42.27
2023-03-04T07:03:54.382Z,40.03
2023-03-04T07:06:24.817Z,40.93
2023-03-04T07:08:53.337Z,41.57
2023-03-04T07:11:23.528Z,41.73
2023-03-04T07:13:53.289Z,45.90
2023-03-04T07:16:24.807Z,46.53
2023-03-04T07:18:53.266Z,46.90
2023-03-04T07:21:21.586Z,44.10
2023-03-04T07:23:49.896Z,44.53
2023-03-04T07:26:18.615Z,44.87
2023-03-04T07:28:46.952Z,42.93
2023-03-04T07:31:22.960Z,39.80
2023-03-04T07:33:53.008Z,37.37
2023-03-04T07:36:21.421Z,39.87
2023-03-04T07:38:51.433Z,38.90
2023-03-04T07:41:20.229Z,38.53
2023-03-04T07:43:48.841Z,39.50
2023-03-04T07:46:17.817Z,39.07
2023-03-04T07:48:46.377Z,37.43
2023-03-04T07:51:17.720Z,37.27
2023-03-04T07:53:50.074Z,36.97
2023-03-04T07:56:20.836Z,40.57
2023-03-04T07:58:49.884Z,37.53
2023-03-04T08:01:20.887Z,46.13
2023-03-04T08:03:49.886Z,37.23
2023-03-04T08:06:20.702Z,35.90
2023-03-04T08:08:49.817Z,37.23
2023-03-04T08:11:20.533Z,36.43
2023-03-04T08:13:49.371Z,35.17
2023-03-04T08:16:19.505Z,34.83
2023-03-04T08:18:49.574Z,34.40
2023-03-04T08:21:20.525Z,37.33
2023-03-04T08:23:51.594Z,35.30
2023-03-04T08:26:22.560Z,36.60
2023-03-04T08:28:51.294Z,34.63
2023-03-04T08:31:20.503Z,34.97
2023-03-04T08:33:49.040Z,40.07
2023-03-04T08:36:18.844Z,35.37
2023-03-04T08:38:47.122Z,39.25
2023-03-04T08:41:16.831Z,33.70
2023-03-04T08:43:45.564Z,35.50
2023-03-04T08:46:13.869Z,33.03
2023-03-04T08:48:45.398Z,34.27
2023-03-04T08:51:15.266Z,32.83
2023-03-04T08:53:46.202Z,29.73
2023-03-04T08:56:15.433Z,28.83
2023-03-04T08:58:43.894Z,30.70
2023-03-04T09:01:13.861Z,29.70
2023-03-04T09:03:42.602Z,27.83
2023-03-04T09:06:12.995Z,29.40
2023-03-04T09:08:41.353Z,29.40
2023-03-04T09:11:11.607Z,29.03
2023-03-04T09:13:40.126Z,28.30
2023-03-04T09:16:11.734Z,30.27
2023-03-04T09:18:40.855Z,30.67
2023-03-04T09:21:09.804Z,29.67
2023-03-04T09:23:38.584Z,29.33
2023-03-04T09:26:17.639Z,30.97
2023-03-04T09:28:45.912Z,30.63
2023-03-04T09:31:15.175Z,32.67
2023-03-04T09:33:43.756Z,28.77
2023-03-04T09:36:13.690Z,29.53
2023-03-04T09:38:42.684Z,33.00
2023-03-04T09:41:18.225Z,33.97
2023-03-04T09:43:47.770Z,34.47
2023-03-04T09:46:19.467Z,33.87
2023-03-04T09:48:51.979Z,35.47
2023-03-04T09:51:23.486Z,35.23
2023-03-04T09:54:06.223Z,31.80
2023-03-04T09:56:39.079Z,32.77
2023-03-04T09:59:17.311Z,33.97
2023-03-04T10:01:51.709Z,33.67
2023-03-04T10:04:30.148Z,32.50
2023-03-04T10:06:59.100Z,34.80
2023-03-04T10:09:31.323Z,35.80
2023-03-04T10:12:04.188Z,35.30
2023-03-04T10:14:38.077Z,34.83
2023-03-04T10:17:13.416Z,33.00
2023-03-04T10:20:05.171Z,34.97
2023-03-04T10:22:36.633Z,45.00
2023-03-04T10:25:18.213Z,34.57
2023-03-04T10:27:51.778Z,34.70
2023-03-04T10:30:30.390Z,32.47
2023-03-04T10:32:58.905Z,34.00
2023-03-04T10:35:34.479Z,34.07
2023-03-04T10:38:04.632Z,37.73
2023-03-04T10:40:39.564Z,34.00
2023-03-04T10:43:16.391Z,37.93
2023-03-04T10:45:45.630Z,36.37
2023-03-04T10:48:22.515Z,35.27
2023-03-04T10:50:50.909Z,36.50
2023-03-04T10:53:34.560Z,33.80
2023-03-04T10:56:03.438Z,35.40
2023-03-04T10:58:33.122Z,34.73
2023-03-04T11:01:05.082Z,33.67
2023-03-04T11:03:36.480Z,35.70
2023-03-04T11:06:13.129Z,33.30
2023-03-04T11:08:42.009Z,33.37
2023-03-04T11:11:29.966Z,35.50
2023-03-04T11:14:02.551Z,34.13
2023-03-04T11:16:35.100Z,33.37
2023-03-04T11:19:07.463Z,35.73
2023-03-04T11:21:40.705Z,34.13
2023-03-04T11:24:27.518Z,36.67
2023-03-04T11:27:00.651Z,34.17
2023-03-04T11:29:35.048Z,33.17
2023-03-04T11:32:10.691Z,34.67
2023-03-04T11:34:44.167Z,34.67
2023-03-04T11:37:20.206Z,35.87
2023-03-04T11:39:53.367Z,35.17
2023-03-04T11:42:38.627Z,32.23
2023-03-04T11:45:27.810Z,33.77
2023-03-04T11:48:05.706Z,31.50
2023-03-04T11:50:48.097Z,29.57
2023-03-04T11:53:38.003Z,31.40
2023-03-04T11:56:31.557Z,31.17
2023-03-04T11:59:23.686Z,31.03
2023-03-04T12:02:04.114Z,31.58
2023-03-04T12:04:48.244Z,31.52
2023-03-04T12:07:31.071Z,31.60
2023-03-04T12:10:07.047Z,31.52
2023-03-04T12:12:51.302Z,31.67
2023-03-04T12:15:26.551Z,34.58
2023-03-04T12:18:13.768Z,31.90
2023-03-04T12:20:58.510Z,32.47
2023-03-04T12:23:44.843Z,34.25
2023-03-04T12:26:26.447Z,34.28
2023-03-04T12:29:00.199Z,30.70
2023-03-04T12:31:36.966Z,32.42
2023-03-04T12:34:34.196Z,34.53
2023-03-04T12:37:35.690Z,33.83
2023-03-04T12:40:27.794Z,30.90
2023-03-04T12:43:07.700Z,33.67
2023-03-04T12:45:45.895Z,34.47
2023-03-04T12:48:25.686Z,36.00
2023-03-04T12:51:03.395Z,35.23
2023-03-04T12:53:39.049Z,33.67
2023-03-04T12:56:10.321Z,34.20
2023-03-04T12:58:39.046Z,30.03
2023-03-04T13:01:16.014Z,33.50
2023-03-04T13:03:56.211Z,32.00
2023-03-04T13:06:37.401Z,31.03
2023-03-04T13:09:15.488Z,31.80
2023-03-04T13:11:47.796Z,30.83
2023-03-04T13:14:28.526Z,32.40
2023-03-04T13:16:58.997Z,31.08
2023-03-04T13:19:48.852Z,32.90
2023-03-04T13:22:46.102Z,30.60
2023-03-04T13:25:45.263Z,29.80
2023-03-04T13:28:30.918Z,32.42
2023-03-04T13:31:33.867Z,35.42
2023-03-04T13:34:05.045Z,33.67
2023-03-04T13:36:57.471Z,34.55
2023-03-04T13:39:37.258Z,33.42
2023-03-04T13:42:21.255Z,32.67
2023-03-04T13:45:04.599Z,32.15
2023-03-04T13:47:48.315Z,33.08
2023-03-04T13:50:38.610Z,30.83
2023-03-04T13:53:41.809Z,34.50
2023-03-04T13:56:25.347Z,31.20
2023-03-04T13:59:03.504Z,33.40
2023-03-04T14:01:34.139Z,32.42
2023-03-04T14:04:11.409Z,32.78
2023-03-04T14:06:43.808Z,34.70
2023-03-04T14:09:15.815Z,31.83
2023-03-04T14:11:45.848Z,31.33
2023-03-04T14:14:16.820Z,31.65
2023-03-04T14:16:50.362Z,31.05
2023-03-04T14:19:26.408Z,30.90
2023-03-04T14:21:54.992Z,31.23
2023-03-04T14:24:24.792Z,30.75
2023-03-04T14:27:11.266Z,32.05
2023-03-04T14:29:39.726Z,32.85
2023-03-04T14:32:08.788Z,33.47
2023-03-04T14:34:39.846Z,32.47
2023-03-04T14:37:22.901Z,32.35
2023-03-04T14:39:53.888Z,33.50
2023-03-04T14:42:26.388Z,31.38
2023-03-04T14:44:59.302Z,32.97
2023-03-04T14:47:34.376Z,31.67
2023-03-04T14:50:04.752Z,28.48
2023-03-04T14:52:39.909Z,32.72
2023-03-04T14:55:24.653Z,32.95
2023-03-04T14:58:06.728Z,34.85
2023-03-04T15:00:36.483Z,32.80
2023-03-04T15:03:09.547Z,32.78
2023-03-04T15:05:38.037Z,34.60
2023-03-04T15:08:22.576Z,33.50
2023-03-04T15:10:56.981Z,31.25
2023-03-04T15:13:42.146Z,34.72
2023-03-04T15:16:12.333Z,31.02
2023-03-04T15:18:54.058Z,32.33
2023-03-04T15:21:37.905Z,31.35
2023-03-04T15:24:07.412Z,30.27
2023-03-04T15:26:40.327Z,30.27
2023-03-04T15:29:16.396Z,29.73
2023-03-04T15:31:48.218Z,29.03
2023-03-04T15:34:18.846Z,28.95
2023-03-04T15:36:48.580Z,30.73
2023-03-04T15:39:19.029Z,31.37
2023-03-04T15:41:48.372Z,31.23
2023-03-04T15:44:18.143Z,30.87
2023-03-04T15:46:46.639Z,31.17
2023-03-04T15:49:15.115Z,31.83
2023-03-04T15:51:43.855Z,34.17
2023-03-04T15:54:15.120Z,28.73
2023-03-04T15:56:43.865Z,29.93
2023-03-04T15:59:14.953Z,26.37
2023-03-04T16:01:44.924Z,27.80
2023-03-04T16:04:16.815Z,27.70
2023-03-04T16:06:46.842Z,26.63
2023-03-04T16:09:19.641Z,26.73
2023-03-04T16:11:48.496Z,26.80
2023-03-04T16:14:17.498Z,25.17
2023-03-04T16:16:48.101Z,25.77
2023-03-04T16:19:16.767Z,39.47
2023-03-04T16:21:45.254Z,35.43
2023-03-04T16:24:18.787Z,35.87
2023-03-04T16:26:47.615Z,28.20
2023-03-04T16:29:19.280Z,36.17
2023-03-04T16:31:49.104Z,35.70
2023-03-04T16:34:17.649Z,28.87
2023-03-04T16:36:46.972Z,44.10
2023-03-04T16:39:21.456Z,51.47
2023-03-04T16:41:50.680Z,42.80
2023-03-04T16:44:18.969Z,32.30
2023-03-04T16:46:48.719Z,31.43
2023-03-04T16:49:17.116Z,56.17
2023-03-04T16:51:48.078Z,49.27
2023-03-04T16:54:19.894Z,26.17
2023-03-04T16:56:48.211Z,33.40
2023-03-04T16:59:17.742Z,35.87
2023-03-04T17:01:46.293Z,33.83
2023-03-04T17:04:16.117Z,26.70
2023-03-04T17:06:44.336Z,28.10
2023-03-04T17:09:12.672Z,28.10
2023-03-04T17:11:40.998Z,28.07
2023-03-04T17:14:09.326Z,28.53
2023-03-04T17:16:37.552Z,26.03
2023-03-04T17:19:05.754Z,24.87
2023-03-04T17:21:35.510Z,25.13
2023-03-04T17:24:04.559Z,25.70
2023-03-04T17:26:33.644Z,26.10
2023-03-04T17:29:03.686Z,25.50
2023-03-04T17:31:31.951Z,23.40
2023-03-04T17:34:00.375Z,24.80
2023-03-04T17:36:29.095Z,26.17
2023-03-04T17:39:00.505Z,25.50
2023-03-04T17:41:28.917Z,23.83
2023-03-04T17:43:57.583Z,24.67
2023-03-04T17:46:27.766Z,24.97
2023-03-04T17:48:59.136Z,24.93
2023-03-04T17:51:32.985Z,24.80
2023-03-04T17:54:05.566Z,24.03
2023-03-04T17:56:35.915Z,23.20
2023-03-04T17:59:08.016Z,25.33
2023-03-04T18:01:36.677Z,23.37
2023-03-04T18:04:05.690Z,25.73
2023-03-04T18:06:34.131Z,23.67
2023-03-04T18:09:03.809Z,23.73
2023-03-04T18:11:32.995Z,24.40
2023-03-04T18:14:01.464Z,24.07
2023-03-04T18:16:29.977Z,24.87
2023-03-04T18:19:01.077Z,24.40
2023-03-04T18:21:30.429Z,24.70
2023-03-04T18:23:59.311Z,24.10
2023-03-04T18:26:29.444Z,24.07
2023-03-04T18:28:58.041Z,23.93
2023-03-04T18:31:31.627Z,24.73
2023-03-04T18:34:02.163Z,24.87
2023-03-04T18:36:30.826Z,24.40
2023-03-04T18:38:59.519Z,23.90
2023-03-04T18:41:29.285Z,23.97
2023-03-04T18:43:57.843Z,22.80
2023-03-04T18:46:32.894Z,23.33
2023-03-04T18:49:04.885Z,22.77
2023-03-04T18:51:33.274Z,22.23
2023-03-04T18:54:02.135Z,22.40
2023-03-04T18:56:38.746Z,21.60
2023-03-04T18:59:10.602Z,22.30
2023-03-04T19:01:39.089Z,22.87
2023-03-04T19:04:08.287Z,22.57
2023-03-04T19:06:36.880Z,22.33
2023-03-04T19:09:06.530Z,24.93
2023-03-04T19:11:36.741Z,24.87
2023-03-04T19:14:05.958Z,23.23
2023-03-04T19:16:34.539Z,24.33
2023-03-04T19:19:02.757Z,26.10
2023-03-04T19:21:31.055Z,24.13
2023-03-04T19:23:59.838Z,25.13
2023-03-04T19:26:28.369Z,25.00
2023-03-04T19:28:58.293Z,23.53
2023-03-04T19:31:29.584Z,25.00
2023-03-04T19:33:58.247Z,24.77
2023-03-04T19:36:26.792Z,27.67
2023-03-04T19:38:56.074Z,28.87
2023-03-04T19:41:25.756Z,27.33
2023-03-04T19:43:54.240Z,25.73
2023-03-04T19:46:24.076Z,27.67
2023-03-04T19:48:52.668Z,28.67
2023-03-04T19:51:26.409Z,27.23
2023-03-04T19:53:55.569Z,26.57
2023-03-04T19:56:24.973Z,26.73
2023-03-04T19:58:54.892Z,29.97
2023-03-04T20:01:28.273Z,27.53
2023-03-04T20:04:01.445Z,28.53
2023-03-04T20:06:30.447Z,23.83
2023-03-04T20:09:00.946Z,27.10
2023-03-04T20:11:30.298Z,32.10
2023-03-04T20:13:59.280Z,32.07
2023-03-04T20:16:29.632Z,29.33
2023-03-04T20:18:59.168Z,32.00
2023-03-04T20:21:29.032Z,29.47
2023-03-04T20:23:58.056Z,28.00
2023-03-04T20:26:26.309Z,27.57
2023-03-04T20:28:54.514Z,25.87
2023-03-04T20:31:24.626Z,26.40
2023-03-04T20:33:56.131Z,26.53
2023-03-04T20:36:26.630Z,27.67
2023-03-04T20:39:02.018Z,34.73
2023-03-04T20:41:31.219Z,30.47
2023-03-04T20:43:59.704Z,29.03
2023-03-04T20:46:32.460Z,30.73
2023-03-04T20:49:04.308Z,29.93
2023-03-04T20:51:33.776Z,24.03
2023-03-04T20:54:08.919Z,24.10
2023-03-04T20:56:38.384Z,25.57
2023-03-04T20:59:08.872Z,23.97
2023-03-04T21:01:38.457Z,23.27
2023-03-04T21:04:08.899Z,25.00
2023-03-04T21:06:38.706Z,24.93
2023-03-04T21:09:09.143Z,26.37
2023-03-04T21:11:40.346Z,28.37
2023-03-04T21:14:12.514Z,27.77
2023-03-04T21:16:41.375Z,27.57
2023-03-04T21:19:16.778Z,28.33
2023-03-04T21:21:45.683Z,28.10
2023-03-04T21:24:16.390Z,28.53
2023-03-04T21:26:47.790Z,29.90
2023-03-04T21:29:16.945Z,31.33
2023-03-04T21:31:48.488Z,31.50
2023-03-04T21:34:21.598Z,33.40
2023-03-04T21:36:50.295Z,32.93
2023-03-04T21:39:20.968Z,33.43
2023-03-04T21:41:49.751Z,34.73
2023-03-04T21:44:27.848Z,33.80
2023-03-04T21:46:57.060Z,32.77
2023-03-04T21:49:27.460Z,32.53
2023-03-04T21:51:56.052Z,32.20
2023-03-04T21:54:24.730Z,31.03
2023-03-04T21:56:53.157Z,30.67
2023-03-04T21:59:22.973Z,31.10
2023-03-04T22:01:51.353Z,30.43
2023-03-04T22:04:19.835Z,31.97
2023-03-04T22:06:49.518Z,30.03
2023-03-04T22:09:17.831Z,29.70
2023-03-04T22:11:46.679Z,29.50
2023-03-04T22:14:15.059Z,29.47
2023-03-04T22:16:56.936Z,28.77
2023-03-04T22:19:26.421Z,29.13
2023-03-04T22:21:56.414Z,27.53
2023-03-04T22:24:24.889Z,30.33
2023-03-04T22:26:53.522Z,27.70
2023-03-04T22:29:21.777Z,28.33
2023-03-04T22:31:50.278Z,29.30
2023-03-04T22:34:18.835Z,28.17
2023-03-04T22:36:49.218Z,27.63
2023-03-04T22:39:20.270Z,26.60
2023-03-04T22:41:48.933Z,28.00
2023-03-04T22:44:17.767Z,27.90
2023-03-04T22:46:46.051Z,26.93
2023-03-04T22:49:15.674Z,27.20
2023-03-04T22:51:45.330Z,26.50
2023-03-04T22:54:15.734Z,26.83
2023-03-04T22:56:45.608Z,26.27
2023-03-04T22:59:14.335Z,25.70
2023-03-04T23:01:42.765Z,26.43
2023-03-04T23:04:11.210Z,27.73
2023-03-04T23:06:39.849Z,27.47
2023-03-04T23:09:08.323Z,26.97
2023-03-04T23:11:37.182Z,27.60
2023-03-04T23:14:08.051Z,26.70
2023-03-04T23:16:39.386Z,26.10
2023-03-04T23:19:09.280Z,27.20
2023-03-04T23:21:38.612Z,26.30
2023-03-04T23:24:08.819Z,26.70
2023-03-04T23:26:39.743Z,25.93
2023-03-04T23:29:11.446Z,27.10
2023-03-04T23:31:39.826Z,25.67
2023-03-04T23:34:08.402Z,26.63
2023-03-04T23:36:38.047Z,27.30
2023-03-04T23:39:08.186Z,27.73
2023-03-04T23:41:37.007Z,29.00
2023-03-04T23:44:06.494Z,27.33
2023-03-04T23:46:37.637Z,26.47
2023-03-04T23:49:06.795Z,27.40
2023-03-04T23:51:35.985Z,26.90
2023-03-04T23:54:04.656Z,27.20
2023-03-04T23:56:32.840Z,26.70
2023-03-04T23:59:01.696Z,26.87
